createdAt,value
2018-10-16T00:00:33.953Z,10.50
2018-10-16T00:05:37.065Z,10.50
2018-10-16T00:10:44.687Z,10.50
2018-10-16T00:15:47.800Z,10.40
2018-10-16T00:20:50.905Z,10.40
2018-10-16T00:25:53.989Z,10.40
2018-10-16T00:30:57.080Z,10.40
2018-10-16T00:36:00.157Z,10.40
2018-10-16T00:41:03.244Z,10.50
2018-10-16T00:46:06.372Z,10.40
2018-10-16T00:51:09.418Z,10.40
2018-10-16T00:56:12.495Z,10.40
2018-10-16T01:01:19.210Z,10.40
2018-10-16T01:06:22.387Z,10.40
2018-10-16T01:11:25.490Z,10.40
2018-10-16T01:16:28.600Z,10.40
2018-10-16T01:21:31.728Z,10.40
2018-10-16T01:26:34.812Z,10.40
2018-10-16T01:31:38.009Z,10.40
2018-10-16T01:36:41.027Z,10.30
2018-10-16T01:41:44.140Z,10.30
2018-10-16T01:46:47.299Z,10.30
2018-10-16T01:51:50.336Z,10.30
2018-10-16T01:56:53.415Z,10.20
2018-10-16T02:01:56.629Z,10.10
2018-10-16T02:06:59.720Z,10.00
2018-10-16T02:12:02.780Z,10.00
2018-10-16T02:17:06.428Z,9.90
2018-10-16T02:22:09.520Z,9.90
2018-10-16T02:27:12.568Z,9.80
2018-10-16T02:32:15.649Z,9.80
2018-10-16T02:37:18.729Z,9.80
2018-10-16T02:42:21.757Z,9.80
2018-10-16T02:47:24.828Z,9.70
2018-10-16T02:52:27.896Z,9.70
2018-10-16T02:57:31.024Z,9.70
2018-10-16T03:02:34.068Z,9.60
2018-10-16T03:07:37.204Z,9.60
2018-10-16T03:12:40.270Z,9.60
2018-10-16T03:17:43.388Z,9.60
2018-10-16T03:22:46.472Z,9.60
2018-10-16T03:27:50.509Z,9.60
2018-10-16T03:32:53.618Z,9.50
2018-10-16T03:37:56.728Z,9.50
2018-10-16T03:42:59.809Z,9.40
2018-10-16T03:48:02.854Z,9.40
2018-10-16T03:53:06.152Z,9.30
2018-10-16T03:58:09.248Z,9.30
2018-10-16T04:03:12.300Z,9.20
2018-10-16T04:08:15.393Z,9.20
2018-10-16T04:13:18.458Z,9.20
2018-10-16T04:18:21.516Z,9.20
2018-10-16T04:23:24.592Z,9.20
2018-10-16T04:28:28.036Z,9.10
2018-10-16T04:33:31.089Z,9.10
2018-10-16T04:38:34.157Z,9.20
2018-10-16T04:43:37.212Z,9.10
2018-10-16T04:48:40.240Z,9.20
2018-10-16T04:53:43.297Z,9.20
2018-10-16T04:58:46.408Z,9.10
2018-10-16T05:03:49.485Z,9.10
2018-10-16T05:08:52.540Z,9.10
2018-10-16T05:13:55.592Z,9.10
2018-10-16T05:18:58.661Z,9.20
2018-10-16T05:24:01.728Z,9.20
2018-10-16T05:29:05.195Z,9.20
2018-10-16T05:34:09.130Z,9.30
2018-10-16T05:39:12.690Z,9.30
2018-10-16T05:44:15.692Z,9.40
2018-10-16T05:49:18.766Z,9.40
2018-10-16T05:54:21.816Z,9.40
2018-10-16T05:59:24.866Z,9.40
2018-10-16T06:04:27.928Z,9.50
2018-10-16T06:09:31.096Z,9.40
2018-10-16T06:14:34.155Z,9.50
2018-10-16T06:19:37.302Z,9.60
2018-10-16T06:24:40.426Z,9.70
2018-10-16T06:29:43.453Z,9.70
2018-10-16T06:34:47.124Z,9.90
2018-10-16T06:39:50.575Z,10.00
2018-10-16T06:44:53.896Z,10.10
2018-10-16T06:50:00.816Z,10.20
2018-10-16T06:55:03.933Z,10.40
2018-10-16T07:00:07.360Z,10.50
2018-10-16T07:05:10.440Z,10.70
2018-10-16T07:10:13.561Z,10.80
2018-10-16T07:15:16.614Z,10.90
2018-10-16T07:20:19.659Z,11.00
2018-10-16T07:25:22.675Z,11.20
2018-10-16T07:30:25.727Z,11.40
2018-10-16T07:35:28.772Z,11.70
2018-10-16T07:40:31.813Z,12.00
2018-10-16T07:45:34.919Z,12.50
2018-10-16T07:50:37.959Z,13.50
2018-10-16T07:55:40.996Z,14.70
2018-10-16T08:00:44.061Z,15.90
2018-10-16T08:05:47.111Z,16.70
2018-10-16T08:10:50.126Z,17.40
2018-10-16T08:15:53.379Z,17.90
2018-10-16T08:20:56.421Z,18.30
2018-10-16T08:25:59.513Z,18.40
2018-10-16T08:31:02.653Z,18.70
2018-10-16T08:36:05.788Z,18.30
2018-10-16T08:41:09.687Z,17.70
2018-10-16T08:46:24.143Z,16.80
2018-10-16T08:51:34.756Z,16.40
2018-10-16T08:56:37.776Z,16.00
2018-10-16T09:01:40.841Z,16.00
2018-10-16T09:06:43.951Z,16.10
2018-10-16T09:11:48.162Z,16.20
2018-10-16T09:16:51.208Z,16.40
2018-10-16T09:21:54.421Z,16.30
2018-10-16T09:26:57.505Z,16.30
2018-10-16T09:32:00.567Z,16.20
2018-10-16T09:37:03.617Z,16.10
2018-10-16T09:42:06.651Z,16.00
2018-10-16T09:47:09.728Z,15.90
2018-10-16T09:52:12.786Z,15.80
2018-10-16T09:57:15.848Z,15.80
2018-10-16T10:02:18.889Z,15.70
2018-10-16T10:07:21.920Z,15.80
2018-10-16T10:12:25.049Z,15.80
2018-10-16T10:17:28.075Z,15.80
2018-10-16T10:22:31.238Z,15.70
2018-10-16T10:27:34.389Z,15.80
2018-10-16T10:32:37.421Z,15.80
2018-10-16T10:37:40.531Z,15.90
2018-10-16T10:42:43.608Z,16.10
2018-10-16T10:47:46.724Z,16.20
2018-10-16T10:52:49.755Z,16.40
2018-10-16T10:57:52.792Z,16.60
2018-10-16T11:02:55.905Z,16.80
2018-10-16T11:07:58.864Z,17.20
2018-10-16T11:13:02.891Z,17.60
2018-10-16T11:18:05.916Z,18.00
2018-10-16T11:23:09.024Z,18.40
2018-10-16T11:28:12.073Z,19.00
2018-10-16T11:33:15.213Z,19.30
2018-10-16T11:38:18.372Z,19.50
2018-10-16T11:43:21.403Z,19.60
2018-10-16T11:48:24.471Z,19.80
2018-10-16T11:53:27.528Z,19.80
2018-10-16T11:58:30.564Z,19.80
2018-10-16T12:03:33.592Z,19.70
2018-10-16T12:08:36.748Z,19.70
2018-10-16T12:13:39.852Z,19.80
2018-10-16T12:18:48.357Z,19.70
2018-10-16T12:23:51.482Z,19.80
2018-10-16T12:28:54.613Z,19.90
2018-10-16T12:33:57.667Z,19.90
2018-10-16T12:39:00.713Z,20.00
2018-10-16T12:44:03.820Z,20.00
2018-10-16T12:49:06.869Z,19.90
2018-10-16T12:54:09.947Z,19.90
2018-10-16T12:59:13.035Z,19.90
2018-10-16T13:04:16.108Z,19.90
2018-10-16T13:09:19.147Z,19.90
2018-10-16T13:14:22.192Z,19.90
2018-10-16T13:19:25.229Z,19.90
2018-10-16T13:24:28.284Z,20.00
2018-10-16T13:29:31.558Z,20.10
2018-10-16T13:34:34.498Z,20.30
2018-10-16T13:39:37.502Z,20.70
2018-10-16T13:44:40.528Z,21.00
2018-10-16T13:49:43.574Z,21.20
2018-10-16T13:54:46.703Z,21.20
2018-10-16T13:59:49.800Z,21.20
2018-10-16T14:04:52.933Z,21.10
2018-10-16T14:09:55.942Z,20.90
2018-10-16T14:14:58.943Z,20.70
2018-10-16T14:20:02.041Z,20.40
2018-10-16T14:25:06.141Z,20.10
2018-10-16T14:30:10.820Z,19.90
2018-10-16T14:35:14.252Z,19.70
2018-10-16T14:40:17.414Z,19.50
2018-10-16T14:45:20.348Z,19.40
2018-10-16T14:50:23.392Z,19.30
2018-10-16T14:55:26.389Z,19.20
2018-10-16T15:00:29.563Z,19.10
2018-10-16T15:05:32.633Z,19.00
2018-10-16T15:10:35.685Z,18.90
2018-10-16T15:15:38.699Z,18.70
2018-10-16T15:20:41.708Z,18.50
2018-10-16T15:25:44.720Z,18.40
2018-10-16T15:30:47.784Z,18.20
2018-10-16T15:35:50.956Z,17.90
2018-10-16T15:40:53.870Z,17.70
2018-10-16T15:45:56.994Z,17.50
2018-10-16T15:51:00.046Z,17.30
2018-10-16T15:56:03.140Z,17.00
2018-10-16T16:01:06.138Z,16.80
2018-10-16T16:06:09.251Z,16.60
2018-10-16T16:11:12.376Z,16.40
2018-10-16T16:16:15.513Z,16.10
2018-10-16T16:21:18.608Z,15.90
2018-10-16T16:26:21.769Z,15.70
2018-10-16T16:31:24.760Z,15.50
2018-10-16T16:36:27.836Z,15.30
2018-10-16T16:41:30.906Z,15.10
2018-10-16T16:46:33.948Z,14.90
2018-10-16T16:51:37.089Z,14.70
2018-10-16T16:56:40.196Z,14.60
2018-10-16T17:01:43.260Z,14.50
2018-10-16T17:06:46.323Z,14.30
2018-10-16T17:11:49.469Z,14.20
2018-10-16T17:16:52.497Z,14.10
2018-10-16T17:21:55.560Z,14.00
2018-10-16T17:26:58.560Z,13.80
2018-10-16T17:32:01.618Z,13.70
2018-10-16T17:37:04.696Z,13.70
2018-10-16T17:42:07.837Z,13.60
2018-10-16T17:47:10.893Z,13.50
2018-10-16T17:52:13.939Z,13.40
2018-10-16T17:57:17.032Z,13.30
2018-10-16T18:02:20.123Z,13.20
2018-10-16T18:07:23.148Z,13.10
2018-10-16T18:12:26.408Z,13.00
2018-10-16T18:17:29.454Z,12.90
2018-10-16T18:22:32.483Z,12.80
2018-10-16T18:27:35.695Z,12.70
2018-10-16T18:32:38.928Z,12.60
2018-10-16T18:37:42.954Z,12.50
2018-10-16T18:42:46.009Z,12.40
2018-10-16T18:47:49.050Z,12.40
2018-10-16T18:52:52.159Z,12.30
2018-10-16T18:57:55.249Z,12.20
2018-10-16T19:02:58.367Z,12.20
2018-10-16T19:08:01.430Z,12.20
2018-10-16T19:13:04.589Z,12.10
2018-10-16T19:18:07.593Z,12.00
2018-10-16T19:23:10.649Z,12.00
2018-10-16T19:28:13.704Z,11.90
2018-10-16T19:33:16.740Z,11.80
2018-10-16T19:38:19.787Z,11.80
2018-10-16T19:43:22.863Z,11.70
2018-10-16T19:48:25.911Z,11.60
2018-10-16T19:53:29.121Z,11.60
2018-10-16T19:58:32.162Z,11.50
2018-10-16T20:03:35.269Z,11.50
2018-10-16T20:08:38.458Z,11.40
2018-10-16T20:13:41.644Z,11.40
2018-10-16T20:18:44.790Z,11.40
2018-10-16T20:23:47.918Z,11.30
2018-10-16T20:28:50.973Z,11.30
2018-10-16T20:33:54.084Z,11.20
2018-10-16T20:38:57.242Z,11.20
2018-10-16T20:44:00.299Z,11.10
2018-10-16T20:49:04.139Z,11.10
2018-10-16T20:54:07.096Z,11.10
2018-10-16T20:59:10.193Z,11.00
2018-10-16T21:04:13.273Z,11.00
2018-10-16T21:09:16.284Z,10.90
2018-10-16T21:14:19.307Z,10.90
2018-10-16T21:19:22.361Z,10.80
2018-10-16T21:24:25.432Z,10.70
2018-10-16T21:29:28.561Z,10.70
2018-10-16T21:34:31.576Z,10.60
2018-10-16T21:39:34.693Z,10.60
2018-10-16T21:44:37.728Z,10.60
2018-10-16T21:49:40.800Z,10.60
2018-10-16T21:54:43.823Z,10.60
2018-10-16T21:59:46.906Z,10.50
2018-10-16T22:04:49.937Z,10.50
2018-10-16T22:09:52.991Z,10.50
2018-10-16T22:14:56.060Z,10.40
2018-10-16T22:19:59.096Z,10.40
2018-10-16T22:25:02.262Z,10.30
2018-10-16T22:30:05.287Z,10.20
2018-10-16T22:35:09.558Z,10.20
2018-10-16T22:40:12.564Z,10.20
2018-10-16T22:45:15.568Z,10.20
2018-10-16T22:50:18.669Z,10.10
2018-10-16T22:55:21.687Z,10.10
2018-10-16T23:00:24.694Z,10.00
2018-10-16T23:05:27.805Z,9.90
2018-10-16T23:10:30.952Z,9.90
2018-10-16T23:15:34.019Z,9.80
2018-10-16T23:20:37.121Z,9.70
2018-10-16T23:25:40.087Z,9.70
2018-10-16T23:30:43.159Z,9.70
2018-10-16T23:35:46.181Z,9.70
2018-10-16T23:40:49.272Z,9.60
2018-10-16T23:45:52.460Z,9.60
2018-10-16T23:50:55.464Z,9.50
2018-10-16T23:55:58.517Z,9.50
